Zele, Belgium
Current Conditions -  °F | °C
As of 5:20 AM on Wednesday 28 Jan 2015 (Local Time) from EBAW Reporting Station
Overcast Overcast  
Wind Chill: 35°   Ceiling: 3700
Heat Index: 41°   Visibility: 6mi
Dew Point: 37°   Wind: 10mph
Humidity: 87%   Direction: 200°SSW
Pressure: 29.97"   Gusts: NA
Location:  51.07°N, 4.04°E
Report Text: EBAW 280420Z AUTO 20009KT 9999 OVC037/// 05/03 Q1015
Loading
Personal Weather Stations






























Interactive Weather Map New forecast layout! Learn more

10-Day Weather Forecast

Advertisements
Track Severe Weather on mobile